createdAt,value
2019-06-15T00:00:25.855Z,60.63
2019-06-15T00:06:30.412Z,60.93
2019-06-15T00:12:36.614Z,62.66
2019-06-15T00:18:41.283Z,66.05
2019-06-15T00:24:45.852Z,67.93
2019-06-15T00:30:50.419Z,66.98
2019-06-15T00:36:55.036Z,67.79
2019-06-15T00:43:01.265Z,69.21
2019-06-15T00:49:05.897Z,69.02
2019-06-15T00:55:10.595Z,70.24
2019-06-15T01:01:15.231Z,70.83
2019-06-15T01:07:21.427Z,69.35
2019-06-15T01:13:25.988Z,69.29
2019-06-15T01:19:30.607Z,71.22
2019-06-15T01:25:35.359Z,71.64
2019-06-15T01:31:40.049Z,71.21
2019-06-15T01:37:44.597Z,71.65
2019-06-15T01:43:49.181Z,71.25
2019-06-15T01:49:53.730Z,73.76
2019-06-15T01:55:59.869Z,74.54
2019-06-15T02:02:04.498Z,75.48
2019-06-15T02:08:09.115Z,74.26
2019-06-15T02:14:13.671Z,75.02
2019-06-15T02:20:18.786Z,74.95
2019-06-15T02:26:23.369Z,73.92
2019-06-15T02:32:27.955Z,74.45
2019-06-15T02:38:32.665Z,74.02
2019-06-15T02:44:37.218Z,73.66
2019-06-15T02:50:41.831Z,71.92
2019-06-15T02:56:47.896Z,73.92
2019-06-15T03:02:52.524Z,74.32
2019-06-15T03:08:58.178Z,75.09
2019-06-15T03:15:02.858Z,74.53
2019-06-15T03:21:07.447Z,74.95
2019-06-15T03:27:12.568Z,73.30
2019-06-15T03:33:17.274Z,73.11
2019-06-15T03:39:24.913Z,72.20
2019-06-15T03:45:29.460Z,71.95
2019-06-15T03:51:34.078Z,69.71
2019-06-15T03:57:39.162Z,70.77
2019-06-15T04:03:43.799Z,72.30
2019-06-15T04:09:48.490Z,73.12
2019-06-15T04:15:53.097Z,72.73
2019-06-15T04:21:57.736Z,73.44
2019-06-15T04:28:02.355Z,72.86
2019-06-15T04:34:08.534Z,73.02
2019-06-15T04:40:15.505Z,72.29
2019-06-15T04:46:20.237Z,71.94
2019-06-15T04:52:24.785Z,70.44
2019-06-15T04:58:30.976Z,70.10
2019-06-15T05:04:36.064Z,71.20
2019-06-15T05:10:40.652Z,73.53
2019-06-15T05:16:45.204Z,72.80
2019-06-15T05:22:49.758Z,73.21
2019-06-15T05:28:55.955Z,73.95
2019-06-15T05:35:00.524Z,74.50
2019-06-15T05:41:07.321Z,75.44
2019-06-15T05:47:11.930Z,76.04
2019-06-15T05:53:16.502Z,76.14
2019-06-15T05:59:23.948Z,76.97
2019-06-15T06:05:28.511Z,76.45
2019-06-15T06:11:33.081Z,76.29
2019-06-15T06:17:42.278Z,74.67
2019-06-15T06:23:46.377Z,69.90
2019-06-15T06:29:53.929Z,71.77
2019-06-15T06:35:58.460Z,70.74
2019-06-15T06:42:04.728Z,72.40
2019-06-15T06:48:09.287Z,71.77
2019-06-15T06:54:17.645Z,72.03
2019-06-15T07:00:37.110Z,68.69
2019-06-15T07:06:41.646Z,66.98
2019-06-15T07:12:46.201Z,66.23
2019-06-15T07:18:50.756Z,64.14
2019-06-15T07:24:55.320Z,63.74
2019-06-15T07:30:59.882Z,63.21
2019-06-15T07:37:04.521Z,63.85
2019-06-15T07:43:09.065Z,62.40
2019-06-15T07:49:13.805Z,61.61
2019-06-15T07:55:18.405Z,59.49
2019-06-15T08:01:23.023Z,57.39
2019-06-15T08:07:29.432Z,58.27
2019-06-15T08:13:34.084Z,53.08
2019-06-15T08:19:41.780Z,50.82
2019-06-15T08:25:46.469Z,50.06
2019-06-15T08:31:54.897Z,51.62
2019-06-15T08:37:59.498Z,50.81
2019-06-15T08:44:04.183Z,50.94
2019-06-15T08:50:09.415Z,47.02
2019-06-15T08:56:14.128Z,46.27
2019-06-15T09:02:18.746Z,45.50
2019-06-15T09:08:23.420Z,44.76
2019-06-15T09:14:28.003Z,45.14
2019-06-15T09:20:35.732Z,44.84
2019-06-15T09:26:40.323Z,44.11
2019-06-15T09:32:44.881Z,44.97
2019-06-15T09:38:50.311Z,43.09
2019-06-15T09:44:55.700Z,46.97
2019-06-15T09:51:00.473Z,45.93
2019-06-15T09:57:05.227Z,45.92
2019-06-15T10:03:09.868Z,47.38
2019-06-15T10:09:14.442Z,47.14
2019-06-15T10:15:24.063Z,48.98
2019-06-15T10:21:28.888Z,54.27
2019-06-15T10:27:33.445Z,51.81
2019-06-15T10:33:39.761Z,51.38
2019-06-15T10:39:44.487Z,53.65
2019-06-15T10:45:49.195Z,53.85
2019-06-15T10:51:58.245Z,52.83
2019-06-15T10:58:05.975Z,52.85
2019-06-15T11:04:10.533Z,51.91
2019-06-15T11:10:17.938Z,51.98
2019-06-15T11:16:26.086Z,49.27
2019-06-15T11:22:30.691Z,49.34
2019-06-15T11:28:36.344Z,50.12
2019-06-15T11:34:40.963Z,48.40
2019-06-15T11:40:45.517Z,48.69
2019-06-15T11:46:50.218Z,49.30
2019-06-15T11:52:54.758Z,48.21
2019-06-15T11:59:00.638Z,46.98
2019-06-15T12:05:11.496Z,45.76
2019-06-15T12:11:16.103Z,44.66
2019-06-15T12:17:20.790Z,45.38
2019-06-15T12:23:25.398Z,45.26
2019-06-15T12:29:30.095Z,44.39
2019-06-15T12:35:34.790Z,45.14
2019-06-15T12:41:39.337Z,44.24
2019-06-15T12:47:43.895Z,43.60
2019-06-15T12:53:49.686Z,43.21
2019-06-15T12:59:56.136Z,43.37
2019-06-15T13:06:02.322Z,42.64
2019-06-15T13:12:07.016Z,44.85
2019-06-15T13:18:11.554Z,45.62
2019-06-15T13:24:16.372Z,47.06
2019-06-15T13:30:22.554Z,44.66
2019-06-15T13:36:27.160Z,43.16
2019-06-15T13:42:31.777Z,46.45
2019-06-15T13:48:36.317Z,49.58
2019-06-15T13:54:42.649Z,50.19
2019-06-15T14:00:47.318Z,48.93
2019-06-15T14:06:51.939Z,46.25
2019-06-15T14:12:59.675Z,48.72
2019-06-15T14:19:05.832Z,52.03
2019-06-15T14:25:11.042Z,53.08
2019-06-15T14:31:15.665Z,54.51
2019-06-15T14:37:20.358Z,54.66
2019-06-15T14:43:25.394Z,51.77
2019-06-15T14:49:29.948Z,54.52
2019-06-15T14:55:36.624Z,53.89
2019-06-15T15:01:41.042Z,55.38
2019-06-15T15:07:46.977Z,52.47
2019-06-15T15:13:51.734Z,51.39
2019-06-15T15:19:57.412Z,48.83
2019-06-15T15:26:02.255Z,48.17
2019-06-15T15:32:07.990Z,48.19
2019-06-15T15:38:13.252Z,47.53
2019-06-15T15:44:17.822Z,47.54
2019-06-15T15:50:22.391Z,49.06
2019-06-15T15:56:27.314Z,49.54
2019-06-15T16:02:45.569Z,47.21
2019-06-15T16:08:38.193Z,45.51
2019-06-15T16:14:42.742Z,45.46
2019-06-15T16:20:51.553Z,44.87
2019-06-15T16:26:58.963Z,43.59
2019-06-15T16:33:04.228Z,45.12
2019-06-15T16:39:09.261Z,43.53
2019-06-15T16:45:16.129Z,42.00
2019-06-15T16:51:20.923Z,40.32
2019-06-15T16:57:26.643Z,39.53
2019-06-15T17:03:36.502Z,40.23
2019-06-15T17:09:41.052Z,40.28
2019-06-15T17:15:46.920Z,41.99
2019-06-15T17:21:53.265Z,45.49
2019-06-15T17:28:04.178Z,46.94
2019-06-15T17:34:11.815Z,48.18
2019-06-15T17:40:17.948Z,49.18
2019-06-15T17:46:28.915Z,48.41
2019-06-15T17:52:30.595Z,47.89
2019-06-15T17:58:37.040Z,47.11
2019-06-15T18:04:41.608Z,43.48
2019-06-15T18:10:47.503Z,42.70
2019-06-15T18:16:52.791Z,43.75
2019-06-15T18:22:57.513Z,45.01
2019-06-15T18:29:02.057Z,44.99
2019-06-15T18:35:10.891Z,43.46
2019-06-15T18:41:17.052Z,43.12
2019-06-15T18:47:21.968Z,44.26
2019-06-15T18:53:26.997Z,45.32
2019-06-15T18:59:31.581Z,49.33
2019-06-15T19:05:40.997Z,52.90
2019-06-15T19:11:43.219Z,53.85
2019-06-15T19:17:47.776Z,54.89
2019-06-15T19:23:52.371Z,55.73
2019-06-15T19:29:56.944Z,57.10
2019-06-15T19:36:01.501Z,57.95
2019-06-15T19:42:06.127Z,58.81
2019-06-15T19:48:11.332Z,61.35
2019-06-15T19:54:16.082Z,61.78
2019-06-15T20:00:21.127Z,63.25
2019-06-15T20:06:26.134Z,65.69
2019-06-15T20:12:30.811Z,67.00
2019-06-15T20:18:37.443Z,67.72
2019-06-15T20:24:41.707Z,67.82
2019-06-15T20:30:47.775Z,68.87
2019-06-15T20:36:55.309Z,69.64
2019-06-15T20:42:59.869Z,70.46
2019-06-15T20:49:06.576Z,70.91
2019-06-15T20:55:11.226Z,72.05
2019-06-15T21:01:16.446Z,72.76
2019-06-15T21:07:21.177Z,72.85
2019-06-15T21:13:26.356Z,73.09
2019-06-15T21:19:35.957Z,74.30
2019-06-15T21:25:40.065Z,74.87
2019-06-15T21:31:46.407Z,74.37
2019-06-15T21:37:51.057Z,75.43
2019-06-15T21:43:56.538Z,76.23
2019-06-15T21:50:01.263Z,77.40
2019-06-15T21:56:07.175Z,78.23
2019-06-15T22:02:12.092Z,77.78
2019-06-15T22:08:17.125Z,77.98
2019-06-15T22:14:21.798Z,77.62
2019-06-15T22:20:26.435Z,78.12
2019-06-15T22:26:30.989Z,78.29
2019-06-15T22:32:35.546Z,78.78
2019-06-15T22:38:40.099Z,78.50
2019-06-15T22:44:46.434Z,78.66
2019-06-15T22:50:51.159Z,79.13
2019-06-15T22:56:56.640Z,79.53
2019-06-15T23:03:01.367Z,80.25
2019-06-15T23:09:07.549Z,79.79
2019-06-15T23:15:13.492Z,79.78
2019-06-15T23:21:18.050Z,79.98
2019-06-15T23:27:22.621Z,82.58
2019-06-15T23:33:27.153Z,82.56
2019-06-15T23:39:31.709Z,82.88
2019-06-15T23:45:36.307Z,84.35
2019-06-15T23:51:40.867Z,83.95
2019-06-15T23:57:46.516Z,84.21
